Time;durP1;ratioP1;P1;durP2;ratioP2;P2;SDS_P1;SDS_P2;PMS_P1;PMS_P2;Temp;Humidity;BMP_temperature;BMP_pressure;BME280_temperature;BME280_humidity;BME280_pressure;Samples;Min_cycle;Max_cycle;Signal;HPM_P1;HPM_P2
2023/09/07 00:00:42;;;;;;;11.32;8.32;;;16.40;99.90;;;;;;4988655;28;20166;-63
2023/09/07 00:03:08;;;;;;;15.27;7.75;;;16.40;99.90;;;;;;4987960;28;20034;-63
2023/09/07 00:05:33;;;;;;;12.07;7.03;;;16.40;99.90;;;;;;4987415;28;20023;-64
2023/09/07 00:07:59;;;;;;;11.00;7.25;;;16.30;99.90;;;;;;4985571;28;20022;-63
2023/09/07 00:10:26;;;;;;;10.73;7.20;;;16.30;99.90;;;;;;4986172;28;20030;-63
2023/09/07 00:12:52;;;;;;;10.95;7.68;;;16.40;99.90;;;;;;4985784;28;20033;-64
2023/09/07 00:15:19;;;;;;;12.23;7.07;;;16.40;99.90;;;;;;4987490;28;20022;-63
2023/09/07 00:17:45;;;;;;;14.32;8.13;;;16.40;99.90;;;;;;4988569;28;20022;-63
2023/09/07 00:20:11;;;;;;;14.13;7.28;;;16.30;99.90;;;;;;4983738;28;21548;-63
2023/09/07 00:22:37;;;;;;;11.15;7.60;;;16.40;99.90;;;;;;4978936;28;20060;-63
2023/09/07 00:25:04;;;;;;;17.88;7.82;;;16.40;99.90;;;;;;4980754;28;20492;-62
2023/09/07 00:27:30;;;;;;;13.88;8.45;;;16.30;99.90;;;;;;4979802;28;20034;-63
2023/09/07 00:29:55;;;;;;;11.55;7.82;;;16.30;99.90;;;;;;4979414;28;21973;-62
2023/09/07 00:32:21;;;;;;;12.45;7.38;;;16.20;99.90;;;;;;4978999;28;20034;-63
2023/09/07 00:34:46;;;;;;;14.60;8.45;;;16.30;99.90;;;;;;4981646;28;20096;-62
2023/09/07 00:37:12;;;;;;;13.93;8.10;;;16.20;99.90;;;;;;4979727;28;20045;-63
2023/09/07 00:39:38;;;;;;;14.63;9.13;;;16.20;99.90;;;;;;4986338;28;20034;-63
2023/09/07 00:42:04;;;;;;;14.73;8.20;;;16.20;99.90;;;;;;4982172;28;20097;-63
2023/09/07 00:44:29;;;;;;;17.40;7.47;;;16.10;99.90;;;;;;4982139;28;20082;-63
2023/09/07 00:46:56;;;;;;;14.13;7.97;;;16.10;99.90;;;;;;4982879;28;20030;-62
2023/09/07 00:49:23;;;;;;;14.70;8.10;;;16.10;99.90;;;;;;4980483;28;20392;-63
2023/09/07 00:51:48;;;;;;;13.10;7.30;;;16.00;99.90;;;;;;4982062;28;20042;-63
2023/09/07 00:54:14;;;;;;;13.80;7.65;;;16.00;99.90;;;;;;4979772;28;20035;-62
2023/09/07 00:56:41;;;;;;;19.00;7.70;;;16.00;99.90;;;;;;4979270;28;20084;-63
2023/09/07 00:59:08;;;;;;;11.27;7.88;;;16.00;99.90;;;;;;4983723;28;20085;-63
2023/09/07 01:01:34;;;;;;;12.38;7.05;;;16.00;99.90;;;;;;4982899;28;21688;-63
2023/09/07 01:04:00;;;;;;;13.07;8.43;;;16.00;99.90;;;;;;4981057;28;20136;-62
2023/09/07 01:06:32;;;;;;;14.75;7.60;;;16.00;99.90;;;;;;4988890;28;20035;-62
2023/09/07 01:09:04;;;;;;;16.67;8.15;;;15.90;99.90;;;;;;4982160;28;20022;-63
2023/09/07 01:11:37;;;;;;;14.57;8.48;;;16.00;99.90;;;;;;4989370;28;20038;-62
2023/09/07 01:14:03;;;;;;;15.23;8.45;;;16.00;99.90;;;;;;4982888;28;20041;-63
2023/09/07 01:16:30;;;;;;;20.13;8.82;;;15.90;99.90;;;;;;4981527;28;20018;-63
2023/09/07 01:18:56;;;;;;;17.40;8.07;;;15.90;99.90;;;;;;4987296;28;20023;-63
2023/09/07 01:21:22;;;;;;;13.13;8.32;;;15.90;99.90;;;;;;4983145;28;20042;-63
2023/09/07 01:23:49;;;;;;;14.13;8.07;;;15.90;99.90;;;;;;4986469;28;20028;-63
2023/09/07 01:26:15;;;;;;;14.75;8.57;;;16.00;99.90;;;;;;4983935;28;20042;-63
2023/09/07 01:28:41;;;;;;;17.80;9.10;;;15.90;99.90;;;;;;4982385;28;20048;-62
2023/09/07 01:31:07;;;;;;;21.20;8.73;;;15.90;99.90;;;;;;4982460;28;20061;-63
2023/09/07 01:33:33;;;;;;;18.08;9.40;;;15.90;99.90;;;;;;4983329;28;20058;-63
2023/09/07 01:35:58;;;;;;;14.13;7.85;;;15.90;99.90;;;;;;4984503;28;20077;-63
2023/09/07 01:38:24;;;;;;;12.27;8.18;;;15.90;99.90;;;;;;4988005;28;20080;-63
2023/09/07 01:40:50;;;;;;;13.43;8.23;;;15.90;99.90;;;;;;4989734;28;20496;-64
2023/09/07 01:43:15;;;;;;;12.25;7.63;;;16.00;99.90;;;;;;4989090;28;20452;-63
2023/09/07 01:45:41;;;;;;;13.15;6.97;;;15.90;99.90;;;;;;4983334;28;20034;-63
2023/09/07 01:48:09;;;;;;;14.38;6.80;;;16.00;99.90;;;;;;4988580;28;20539;-63
2023/09/07 01:50:36;;;;;;;11.38;7.13;;;15.90;99.90;;;;;;4987907;28;20042;-63
2023/09/07 01:53:03;;;;;;;9.40;6.78;;;16.00;99.90;;;;;;4989110;28;20031;-64
2023/09/07 01:55:28;;;;;;;13.23;6.72;;;16.00;99.90;;;;;;4988912;28;20058;-64
2023/09/07 01:57:54;;;;;;;12.73;6.60;;;16.00;99.90;;;;;;4991575;28;20520;-64
2023/09/07 02:00:19;;;;;;;8.95;6.38;;;16.00;99.90;;;;;;4989881;28;20061;-63
2023/09/07 02:02:45;;;;;;;12.48;6.97;;;16.00;99.90;;;;;;4991267;28;20380;-62
2023/09/07 02:05:10;;;;;;;12.85;6.93;;;16.00;99.90;;;;;;4991167;28;20038;-64
2023/09/07 02:07:36;;;;;;;11.57;6.85;;;16.00;99.90;;;;;;4989654;28;20109;-64
2023/09/07 02:10:03;;;;;;;10.10;6.15;;;16.00;99.90;;;;;;4990458;28;20026;-63
2023/09/07 02:12:29;;;;;;;10.57;6.93;;;16.00;99.90;;;;;;4991200;28;20034;-62
2023/09/07 02:14:55;;;;;;;9.75;6.05;;;16.00;99.90;;;;;;4988377;28;20045;-63
2023/09/07 02:17:21;;;;;;;9.60;6.55;;;16.00;99.90;;;;;;4988975;28;20770;-63
2023/09/07 02:19:47;;;;;;;8.25;5.88;;;16.00;99.90;;;;;;4984070;28;20106;-63
2023/09/07 02:22:12;;;;;;;10.63;6.75;;;15.90;99.90;;;;;;4984260;28;20039;-63
2023/09/07 02:24:38;;;;;;;10.18;6.50;;;15.90;99.90;;;;;;4982493;28;20120;-63
2023/09/07 02:27:04;;;;;;;14.02;6.85;;;15.90;99.90;;;;;;4985793;28;20113;-62
2023/09/07 02:29:29;;;;;;;10.88;6.05;;;15.90;99.90;;;;;;4984911;28;20085;-63
2023/09/07 02:31:56;;;;;;;13.23;7.40;;;15.80;99.90;;;;;;4983398;28;20034;-63
2023/09/07 02:34:22;;;;;;;12.93;7.60;;;15.80;99.90;;;;;;4988142;28;20025;-63
2023/09/07 02:36:47;;;;;;;13.25;7.57;;;15.70;99.90;;;;;;4980171;28;20105;-63
2023/09/07 02:39:13;;;;;;;12.50;7.20;;;15.70;99.90;;;;;;4998489;28;20504;-62
2023/09/07 02:41:39;;;;;;;9.70;7.10;;;15.70;99.90;;;;;;4985794;28;20369;-63
2023/09/07 02:44:05;;;;;;;10.45;7.55;;;15.70;99.90;;;;;;4982482;28;20081;-66
2023/09/07 02:46:30;;;;;;;16.02;7.47;;;15.60;99.90;;;;;;4980193;28;20512;-63
2023/09/07 02:48:59;;;;;;;13.02;7.13;;;15.60;99.90;;;;;;4980829;28;20034;-63
2023/09/07 02:51:25;;;;;;;12.27;7.00;;;15.60;99.90;;;;;;4981843;28;20060;-64
2023/09/07 02:53:51;;;;;;;13.73;7.22;;;15.60;99.90;;;;;;4983327;28;20030;-64
2023/09/07 02:56:17;;;;;;;13.63;7.38;;;15.50;99.90;;;;;;4979032;28;20026;-63
2023/09/07 02:58:43;;;;;;;11.10;7.60;;;15.50;99.90;;;;;;4981376;28;20049;-63
2023/09/07 03:01:09;;;;;;;18.33;7.07;;;15.50;99.90;;;;;;4981003;28;20049;-63
2023/09/07 03:03:35;;;;;;;17.65;7.85;;;15.50;99.90;;;;;;4984727;28;20030;-64
2023/09/07 03:06:08;;;;;;;11.60;6.95;;;15.50;99.90;;;;;;4981378;28;20032;-63
2023/09/07 03:08:34;;;;;;;20.10;7.18;;;15.50;99.90;;;;;;4980559;28;20027;-63
2023/09/07 03:11:04;;;;;;;12.73;8.43;;;15.40;99.90;;;;;;4981052;28;20030;-64
2023/09/07 03:13:30;;;;;;;13.70;7.03;;;15.40;99.90;;;;;;4983123;28;20448;-62
2023/09/07 03:15:55;;;;;;;17.30;7.13;;;15.40;99.90;;;;;;4978371;28;20026;-64
2023/09/07 03:18:21;;;;;;;15.30;7.35;;;15.40;99.90;;;;;;4986739;28;20026;-63
2023/09/07 03:20:47;;;;;;;11.15;6.75;;;15.40;99.90;;;;;;4978504;28;20461;-62
2023/09/07 03:23:12;;;;;;;15.88;8.68;;;15.40;99.90;;;;;;4981707;28;20041;-63
2023/09/07 03:25:38;;;;;;;9.75;6.55;;;15.40;99.90;;;;;;4984829;28;20034;-63
2023/09/07 03:28:04;;;;;;;11.82;7.40;;;15.40;99.90;;;;;;4981587;28;20028;-63
2023/09/07 03:30:30;;;;;;;12.02;7.53;;;15.40;99.90;;;;;;4983407;28;20034;-64
2023/09/07 03:32:55;;;;;;;15.18;7.95;;;15.40;99.90;;;;;;4979957;28;20050;-62
2023/09/07 03:35:21;;;;;;;15.05;6.97;;;15.30;99.90;;;;;;4983374;28;20051;-63
2023/09/07 03:37:47;;;;;;;13.85;7.65;;;15.30;99.90;;;;;;4980311;28;20030;-63
2023/09/07 03:40:12;;;;;;;12.95;6.90;;;15.30;99.90;;;;;;4986690;28;20519;-64
2023/09/07 03:42:39;;;;;;;11.63;7.68;;;15.30;99.90;;;;;;4980357;28;20117;-63
2023/09/07 03:45:05;;;;;;;9.85;6.50;;;15.30;99.90;;;;;;4981251;28;20061;-62
2023/09/07 03:47:30;;;;;;;15.52;8.00;;;15.30;99.90;;;;;;4984819;28;20053;-64
2023/09/07 03:49:57;;;;;;;11.98;7.60;;;15.20;99.90;;;;;;4984722;28;20022;-63
2023/09/07 03:52:24;;;;;;;11.23;7.15;;;15.20;99.90;;;;;;4984832;28;20660;-63
2023/09/07 03:54:51;;;;;;;11.75;7.50;;;15.10;99.90;;;;;;4989974;28;20085;-63
2023/09/07 03:57:19;;;;;;;9.73;7.00;;;15.10;99.90;;;;;;4985902;28;20531;-63
2023/09/07 03:59:44;;;;;;;12.82;8.00;;;15.10;99.90;;;;;;4989599;28;20026;-62
2023/09/07 04:02:10;;;;;;;17.48;7.53;;;15.10;99.90;;;;;;4984927;28;20101;-63
2023/09/07 04:04:35;;;;;;;13.43;7.65;;;15.10;99.90;;;;;;4987337;28;20030;-63
2023/09/07 04:07:01;;;;;;;13.10;7.38;;;15.10;99.90;;;;;;4987077;28;20061;-63
2023/09/07 04:09:26;;;;;;;12.48;8.43;;;15.10;99.90;;;;;;4988959;28;20451;-63
2023/09/07 04:11:52;;;;;;;13.68;7.63;;;15.00;99.90;;;;;;4986058;28;20396;-63
2023/09/07 04:14:17;;;;;;;13.48;7.47;;;15.00;99.90;;;;;;4988857;28;20484;-63
2023/09/07 04:16:43;;;;;;;13.07;7.43;;;14.90;99.90;;;;;;4983844;28;20039;-61
2023/09/07 04:19:09;;;;;;;12.27;8.20;;;14.90;99.90;;;;;;4985448;28;20037;-63
2023/09/07 04:21:36;;;;;;;10.90;8.00;;;14.80;99.90;;;;;;4979921;28;20173;-63
2023/09/07 04:24:01;;;;;;;18.05;8.38;;;14.80;99.90;;;;;;4985433;28;20037;-63
2023/09/07 04:26:27;;;;;;;12.57;7.93;;;14.70;99.90;;;;;;4980335;28;20034;-63
2023/09/07 04:28:53;;;;;;;12.77;8.70;;;14.70;99.90;;;;;;4980115;28;20088;-63
2023/09/07 04:31:18;;;;;;;14.13;8.02;;;14.60;99.90;;;;;;4979861;28;20108;-63
2023/09/07 04:33:44;;;;;;;17.65;8.27;;;14.60;99.90;;;;;;4978200;28;20477;-63
2023/09/07 04:36:11;;;;;;;12.70;8.50;;;14.60;99.90;;;;;;4981048;28;20046;-64
2023/09/07 04:38:37;;;;;;;15.23;8.18;;;14.60;99.90;;;;;;4980799;28;20026;-63
2023/09/07 04:41:13;;;;;;;17.42;9.10;;;14.60;99.90;;;;;;4987897;28;20100;-63
2023/09/07 04:43:42;;;;;;;12.93;7.47;;;14.60;99.90;;;;;;4989897;28;20069;-62
2023/09/07 04:46:09;;;;;;;12.05;7.82;;;14.70;99.90;;;;;;4988214;28;20076;-62
2023/09/07 04:48:34;;;;;;;13.98;8.63;;;14.60;99.90;;;;;;4987021;28;20124;-63
2023/09/07 04:51:01;;;;;;;16.30;8.77;;;14.60;99.90;;;;;;4990359;28;20069;-63
2023/09/07 04:53:29;;;;;;;15.32;8.40;;;14.60;99.90;;;;;;4996025;28;20034;-63
2023/09/07 04:55:55;;;;;;;14.55;8.18;;;14.60;99.90;;;;;;4992936;28;20395;-62
2023/09/07 04:58:20;;;;;;;13.88;8.48;;;14.60;99.90;;;;;;4984336;28;20034;-63
2023/09/07 05:00:46;;;;;;;12.23;8.05;;;14.70;99.90;;;;;;4984892;28;20050;-63
2023/09/07 05:03:12;;;;;;;13.60;8.13;;;14.60;99.90;;;;;;4991992;28;20022;-63
2023/09/07 05:05:38;;;;;;;22.05;8.23;;;14.70;99.90;;;;;;4984055;28;20037;-63
2023/09/07 05:08:04;;;;;;;13.35;8.40;;;14.70;99.90;;;;;;4995592;28;20385;-59
2023/09/07 05:10:32;;;;;;;21.50;8.65;;;14.70;99.90;;;;;;4990524;28;20045;-63
2023/09/07 05:12:58;;;;;;;11.40;8.35;;;14.70;99.90;;;;;;4984425;28;20030;-62
2023/09/07 05:15:24;;;;;;;13.45;8.18;;;14.70;99.90;;;;;;4990038;28;20049;-60
2023/09/07 05:17:50;;;;;;;19.33;8.48;;;14.60;99.90;;;;;;4986334;28;20069;-61
2023/09/07 05:20:15;;;;;;;11.23;8.20;;;14.60;99.90;;;;;;4984393;28;21053;-61
2023/09/07 05:22:41;;;;;;;20.40;8.38;;;14.60;99.90;;;;;;4987505;28;20035;-60
2023/09/07 05:25:07;;;;;;;16.52;7.40;;;14.60;99.90;;;;;;4987548;28;20083;-61
2023/09/07 05:27:34;;;;;;;16.55;8.88;;;14.60;99.90;;;;;;4985247;28;20050;-59
2023/09/07 05:30:00;;;;;;;14.60;7.72;;;14.70;99.90;;;;;;4986610;28;20294;-61
2023/09/07 05:32:26;;;;;;;13.63;8.25;;;14.70;99.90;;;;;;4981981;28;20042;-62
2023/09/07 05:34:51;;;;;;;15.82;8.13;;;14.70;99.90;;;;;;4986090;28;20191;-58
2023/09/07 05:37:17;;;;;;;16.50;8.98;;;14.70;99.90;;;;;;4988997;28;20410;-62
2023/09/07 05:39:42;;;;;;;23.55;8.95;;;14.80;99.90;;;;;;4991406;28;20034;-58
2023/09/07 05:42:08;;;;;;;14.55;8.80;;;14.80;99.90;;;;;;4995114;28;20026;-58
2023/09/07 05:44:33;;;;;;;16.20;9.48;;;14.90;99.90;;;;;;4990147;28;20039;-61
2023/09/07 05:46:59;;;;;;;12.52;8.52;;;14.90;99.90;;;;;;4986114;28;20033;-61
2023/09/07 05:49:24;;;;;;;14.52;8.35;;;14.90;99.90;;;;;;4994639;28;20382;-60
2023/09/07 05:51:50;;;;;;;10.23;7.28;;;15.00;99.90;;;;;;4991433;28;20504;-58
2023/09/07 05:54:15;;;;;;;10.80;7.40;;;15.00;99.90;;;;;;4990344;28;20101;-62
2023/09/07 05:56:41;;;;;;;13.38;8.27;;;15.00;99.90;;;;;;4991754;28;20057;-60
2023/09/07 05:59:06;;;;;;;12.65;8.20;;;15.10;99.90;;;;;;4990204;28;20439;-62
2023/09/07 06:01:32;;;;;;;13.13;7.93;;;15.10;99.90;;;;;;4990885;28;20514;-61
2023/09/07 06:03:58;;;;;;;12.05;7.82;;;15.20;99.90;;;;;;4989586;28;20033;-60
2023/09/07 06:06:24;;;;;;;16.85;7.95;;;15.30;99.90;;;;;;4991241;28;20062;-61
2023/09/07 06:08:50;;;;;;;16.05;8.75;;;15.30;99.90;;;;;;4986870;28;20065;-61
2023/09/07 06:11:16;;;;;;;15.63;9.00;;;15.40;99.90;;;;;;4988698;28;20026;-58
2023/09/07 06:13:41;;;;;;;14.00;8.52;;;15.40;99.90;;;;;;4992265;28;20042;-59
2023/09/07 06:16:07;;;;;;;13.07;8.45;;;15.50;99.90;;;;;;4985970;28;20078;-62
2023/09/07 06:18:32;;;;;;;15.73;7.88;;;15.50;99.90;;;;;;4981049;28;20027;-59
2023/09/07 06:20:58;;;;;;;12.20;7.50;;;15.50;99.90;;;;;;4991480;28;20077;-61
2023/09/07 06:23:23;;;;;;;14.75;8.88;;;15.60;99.90;;;;;;4989698;28;20026;-60
2023/09/07 06:25:49;;;;;;;10.80;7.55;;;15.70;99.90;;;;;;4992720;28;20504;-61
2023/09/07 06:28:15;;;;;;;13.77;7.88;;;15.70;99.90;;;;;;4992401;28;20034;-59
2023/09/07 06:30:40;;;;;;;12.55;6.97;;;15.70;99.90;;;;;;4990377;28;20037;-60
2023/09/07 06:33:06;;;;;;;14.43;7.72;;;15.80;99.90;;;;;;4991572;28;20076;-59
2023/09/07 06:35:31;;;;;;;12.90;7.25;;;15.90;99.90;;;;;;4990298;28;20056;-58
2023/09/07 06:37:57;;;;;;;12.70;7.43;;;16.00;99.90;;;;;;4986625;28;20053;-60
2023/09/07 06:40:23;;;;;;;11.95;6.97;;;16.00;99.90;;;;;;5006146;28;20022;-57
2023/09/07 06:42:48;;;;;;;11.85;6.72;;;16.10;99.90;;;;;;4992256;28;20023;-60
2023/09/07 06:45:14;;;;;;;14.45;7.57;;;16.10;99.90;;;;;;4985738;28;20046;-60
2023/09/07 06:47:39;;;;;;;10.45;6.47;;;16.20;99.90;;;;;;4989408;28;20034;-61
2023/09/07 06:50:06;;;;;;;16.63;8.15;;;16.30;99.90;;;;;;4983294;28;20026;-61
2023/09/07 06:52:31;;;;;;;12.25;6.70;;;16.40;99.90;;;;;;4987362;28;20096;-61
2023/09/07 06:54:57;;;;;;;11.48;6.57;;;16.40;99.90;;;;;;4991147;28;20030;-60
2023/09/07 06:57:22;;;;;;;10.30;6.78;;;16.50;99.90;;;;;;4985810;28;20429;-57
2023/09/07 06:59:48;;;;;;;14.55;6.75;;;16.60;99.90;;;;;;4982652;28;20444;-58
2023/09/07 07:02:14;;;;;;;8.30;6.47;;;16.60;99.90;;;;;;4988644;28;20046;-61
2023/09/07 07:04:39;;;;;;;10.57;5.53;;;16.80;99.90;;;;;;4986813;28;20441;-62
2023/09/07 07:07:05;;;;;;;11.57;6.35;;;16.90;99.90;;;;;;4988437;28;20126;-62
2023/09/07 07:09:31;;;;;;;10.13;6.20;;;16.90;99.90;;;;;;4990561;28;20950;-61
2023/09/07 07:12:00;;;;;;;9.27;6.72;;;17.00;99.90;;;;;;5004026;28;20034;-61
2023/09/07 07:14:25;;;;;;;11.65;6.28;;;17.10;99.90;;;;;;4982278;28;20638;-62
2023/09/07 07:16:51;;;;;;;9.80;6.15;;;17.20;99.90;;;;;;4987574;28;20524;-60
2023/09/07 07:19:16;;;;;;;10.77;5.97;;;17.40;99.90;;;;;;4987509;28;20034;-60
2023/09/07 07:21:42;;;;;;;8.40;5.82;;;17.50;99.90;;;;;;4990901;28;20097;-60
2023/09/07 07:24:08;;;;;;;9.43;5.40;;;17.60;99.90;;;;;;4985767;28;20077;-60
2023/09/07 07:26:34;;;;;;;8.13;5.40;;;17.70;99.90;;;;;;4986877;28;20089;-60
2023/09/07 07:29:00;;;;;;;7.72;4.75;;;17.80;99.90;;;;;;4988023;28;20035;-56
2023/09/07 07:31:25;;;;;;;7.57;5.43;;;17.90;99.90;;;;;;4989034;28;20065;-59
2023/09/07 07:33:52;;;;;;;9.57;5.43;;;18.10;99.90;;;;;;4988869;28;20043;-60
2023/09/07 07:36:18;;;;;;;14.27;5.78;;;18.10;99.90;;;;;;4989409;28;20053;-57
2023/09/07 07:38:43;;;;;;;13.75;5.13;;;18.30;99.90;;;;;;4984493;28;20057;-58
2023/09/07 07:41:09;;;;;;;10.38;5.68;;;18.30;99.90;;;;;;4989470;28;20026;-56
2023/09/07 07:43:34;;;;;;;8.77;4.95;;;18.50;99.90;;;;;;4987359;28;20110;-61
2023/09/07 07:46:00;;;;;;;12.60;4.90;;;18.60;99.90;;;;;;4989324;28;20037;-60
2023/09/07 07:48:25;;;;;;;7.70;4.82;;;18.70;99.90;;;;;;4985913;28;20019;-59
2023/09/07 07:50:51;;;;;;;6.43;5.13;;;18.80;99.90;;;;;;4984197;28;20023;-60
2023/09/07 07:53:16;;;;;;;12.35;4.85;;;18.90;99.90;;;;;;4983013;28;20026;-62
2023/09/07 07:55:42;;;;;;;8.63;4.75;;;19.00;99.90;;;;;;4989833;28;20395;-60
2023/09/07 07:58:09;;;;;;;9.38;4.82;;;19.10;99.90;;;;;;4985169;28;20500;-60
2023/09/07 08:00:36;;;;;;;9.60;5.15;;;19.30;99.90;;;;;;4986314;28;20026;-60
2023/09/07 08:03:03;;;;;;;9.30;4.53;;;19.40;99.90;;;;;;4987815;28;20042;-58
2023/09/07 08:05:29;;;;;;;11.50;5.28;;;19.50;99.90;;;;;;4989225;28;20022;-62
2023/09/07 08:07:56;;;;;;;9.10;5.07;;;19.60;99.90;;;;;;4983804;28;20065;-60
2023/09/07 08:10:22;;;;;;;7.75;5.15;;;19.70;99.90;;;;;;4984751;28;20038;-61
2023/09/07 08:12:47;;;;;;;10.45;5.05;;;19.80;99.90;;;;;;4986234;28;20512;-61
2023/09/07 08:15:14;;;;;;;7.72;4.85;;;19.90;99.90;;;;;;4985150;28;20053;-60
2023/09/07 08:17:40;;;;;;;7.68;4.38;;;20.00;99.90;;;;;;4984971;28;20510;-59
2023/09/07 08:20:07;;;;;;;11.45;5.40;;;20.10;99.90;;;;;;4985781;28;20105;-60
2023/09/07 08:22:36;;;;;;;10.73;4.60;;;20.20;99.90;;;;;;4990471;28;20030;-60
2023/09/07 08:25:02;;;;;;;6.00;4.10;;;20.30;99.90;;;;;;4988123;28;20038;-59
2023/09/07 08:27:27;;;;;;;8.23;4.57;;;20.40;99.90;;;;;;4987096;28;20031;-60
2023/09/07 08:29:54;;;;;;;7.80;4.75;;;20.50;99.90;;;;;;4983023;28;20042;-62
2023/09/07 08:32:19;;;;;;;11.80;4.78;;;20.60;99.90;;;;;;4988243;28;20432;-61
2023/09/07 08:34:45;;;;;;;7.38;4.22;;;20.70;99.90;;;;;;4985935;28;20038;-61
2023/09/07 08:37:10;;;;;;;8.25;4.93;;;20.80;99.90;;;;;;4986329;28;20030;-62
2023/09/07 08:39:39;;;;;;;9.48;4.85;;;20.80;99.90;;;;;;4984053;28;20046;-61
2023/09/07 08:42:04;;;;;;;9.73;4.65;;;21.00;99.90;;;;;;4986710;28;20015;-59
2023/09/07 08:44:33;;;;;;;8.95;4.57;;;21.00;99.90;;;;;;4990558;28;20037;-60
2023/09/07 08:47:03;;;;;;;10.35;4.95;;;21.20;99.90;;;;;;4986416;28;20476;-60
2023/09/07 08:49:29;;;;;;;10.93;5.03;;;21.30;99.90;;;;;;4984770;28;20031;-61
2023/09/07 08:51:58;;;;;;;10.40;5.05;;;21.40;99.90;;;;;;4983016;28;20037;-60
2023/09/07 08:54:25;;;;;;;7.05;4.63;;;21.50;99.90;;;;;;4979848;28;20073;-61
2023/09/07 08:56:50;;;;;;;10.85;5.13;;;21.60;99.90;;;;;;4989135;28;20102;-61
2023/09/07 08:59:16;;;;;;;13.15;5.55;;;21.70;99.90;;;;;;4988590;28;20105;-59
2023/09/07 09:01:42;;;;;;;10.15;4.53;;;21.90;99.90;;;;;;4988682;28;20030;-61
2023/09/07 09:04:08;;;;;;;6.10;4.68;;;22.00;99.90;;;;;;4983579;28;20105;-61
2023/09/07 09:06:33;;;;;;;8.77;4.78;;;22.20;99.90;;;;;;4987042;28;20030;-57
2023/09/07 09:08:59;;;;;;;10.13;4.47;;;22.30;99.90;;;;;;4987908;28;20031;-62
2023/09/07 09:11:27;;;;;;;11.93;5.13;;;22.40;99.90;;;;;;4987365;28;20492;-56
2023/09/07 09:13:53;;;;;;;11.27;4.43;;;22.50;99.90;;;;;;4990117;28;20497;-61
2023/09/07 09:16:19;;;;;;;7.97;4.57;;;22.60;99.90;;;;;;4987948;28;20050;-61
2023/09/07 09:18:56;;;;;;;10.05;4.75;;;22.80;99.90;;;;;;4986885;28;20532;-62
2023/09/07 09:21:23;;;;;;;10.63;4.68;;;23.00;99.90;;;;;;4982678;28;20033;-61
2023/09/07 09:23:51;;;;;;;6.00;4.32;;;23.10;99.90;;;;;;4987288;28;20022;-62
2023/09/07 09:26:16;;;;;;;6.60;4.75;;;23.30;99.90;;;;;;4985319;28;20026;-62
2023/09/07 09:28:44;;;;;;;13.90;4.53;;;23.40;99.90;;;;;;4991786;28;20037;-61
2023/09/07 09:31:12;;;;;;;15.05;4.70;;;23.50;99.90;;;;;;4991882;28;20108;-60
2023/09/07 09:33:39;;;;;;;8.13;4.60;;;23.70;99.90;;;;;;4991902;28;20049;-61
2023/09/07 09:36:06;;;;;;;8.85;4.78;;;23.80;99.90;;;;;;4991656;28;20026;-61
2023/09/07 09:38:32;;;;;;;10.63;4.57;;;23.90;99.90;;;;;;4988689;28;20030;-62
2023/09/07 09:40:58;;;;;;;9.50;4.82;;;24.00;99.90;;;;;;4990773;28;20599;-59
2023/09/07 09:43:25;;;;;;;9.35;4.78;;;24.20;99.90;;;;;;4991205;28;20276;-61
2023/09/07 09:45:52;;;;;;;11.77;4.68;;;24.30;99.90;;;;;;4989340;28;20484;-62
2023/09/07 09:48:21;;;;;;;6.80;4.75;;;24.50;99.90;;;;;;4991430;28;20042;-60
2023/09/07 09:50:48;;;;;;;8.63;4.95;;;24.60;99.90;;;;;;4988854;28;20403;-61
2023/09/07 09:53:22;;;;;;;7.60;4.40;;;24.80;99.90;;;;;;4989524;28;20023;-61
2023/09/07 09:55:48;;;;;;;;;;;25.00;99.90;;;;;;4984420;28;20034;-59
2023/09/07 09:58:14;;;;;;;6.32;4.22;;;25.20;99.90;;;;;;4987751;28;19910;-62
2023/09/07 10:00:45;;;;;;;8.40;3.75;;;25.40;99.90;;;;;;4992270;28;20034;-61
2023/09/07 10:03:17;;;;;;;5.97;4.32;;;25.60;99.90;;;;;;4990664;28;20101;-62
2023/09/07 10:05:46;;;;;;;8.75;4.43;;;25.80;99.90;;;;;;4991949;28;20029;-62
2023/09/07 10:08:13;;;;;;;9.15;4.63;;;26.00;99.90;;;;;;4987671;28;20113;-61
2023/09/07 10:10:40;;;;;;;6.63;4.45;;;26.20;99.90;;;;;;4988467;28;20038;-61
2023/09/07 10:13:06;;;;;;;8.70;4.47;;;26.40;99.90;;;;;;4984993;28;20077;-61
2023/09/07 10:15:41;;;;;;;6.95;4.00;;;26.60;99.90;;;;;;4987679;28;20018;-62
2023/09/07 10:18:12;;;;;;;6.93;4.18;;;26.80;99.90;;;;;;4991773;28;20069;-62
2023/09/07 10:21:02;;;;;;;6.50;3.63;;;27.00;99.90;;;;;;4985717;28;20029;-60
2023/09/07 10:23:54;;;;;;;8.88;4.68;;;27.20;99.90;;;;;;4989236;28;20026;-60
2023/09/07 10:26:23;;;;;;;9.40;4.20;;;27.30;99.90;;;;;;4987481;28;20038;-60
2023/09/07 10:29:05;;;;;;;8.43;4.10;;;27.60;99.90;;;;;;4987192;28;20027;-61
2023/09/07 10:31:31;;;;;;;4.80;4.00;;;27.60;99.90;;;;;;4989233;28;20480;-61
2023/09/07 10:34:07;;;;;;;8.18;3.95;;;27.90;99.90;;;;;;4992570;28;20037;-62
2023/09/07 10:36:34;;;;;;;9.10;4.40;;;28.10;99.90;;;;;;4988363;28;20033;-61
2023/09/07 10:39:00;;;;;;;8.13;3.88;;;28.40;99.90;;;;;;4992056;28;20049;-61
2023/09/07 10:41:26;;;;;;;9.00;4.28;;;28.40;99.90;;;;;;4989551;28;20140;-62
2023/09/07 10:43:54;;;;;;;8.93;4.60;;;28.50;99.90;;;;;;4991672;28;20035;-61
2023/09/07 10:46:24;;;;;;;10.27;4.00;;;28.60;99.90;;;;;;4991096;28;20081;-61
2023/09/07 10:48:53;;;;;;;7.22;4.05;;;28.80;99.90;;;;;;4990038;28;20025;-61
2023/09/07 10:51:19;;;;;;;7.93;4.03;;;28.70;99.90;;;;;;4989264;28;20026;-62
2023/09/07 10:53:45;;;;;;;8.63;3.97;;;28.70;99.90;;;;;;4991956;28;20031;-62
2023/09/07 10:56:11;;;;;;;5.72;3.95;;;28.80;99.90;;;;;;4992899;28;20034;-60
2023/09/07 10:58:42;;;;;;;9.25;4.60;;;28.90;99.90;;;;;;4989738;28;20477;-62
2023/09/07 11:01:08;;;;;;;7.60;3.47;;;29.00;99.90;;;;;;4980585;28;20038;-61
2023/09/07 11:03:36;;;;;;;6.63;3.92;;;29.10;99.90;;;;;;4977847;28;20026;-62
2023/09/07 11:06:17;;;;;;;3.83;3.53;;;29.20;99.90;;;;;;4988440;28;20059;-61
2023/09/07 11:08:42;;;;;;;7.53;4.00;;;29.40;99.90;;;;;;4988520;28;20436;-63
2023/09/07 11:11:09;;;;;;;4.68;3.83;;;29.40;99.90;;;;;;4991660;28;20101;-62
2023/09/07 11:13:34;;;;;;;6.72;4.30;;;29.50;99.90;;;;;;4992345;28;20046;-63
2023/09/07 11:16:00;;;;;;;6.05;3.90;;;29.60;99.90;;;;;;4991034;28;20065;-63
2023/09/07 11:18:26;;;;;;;5.00;4.15;;;29.80;99.90;;;;;;4992586;28;20030;-59
2023/09/07 11:20:53;;;;;;;8.43;4.47;;;29.80;99.90;;;;;;4991322;28;20097;-61
2023/09/07 11:23:20;;;;;;;6.65;3.72;;;29.80;99.90;;;;;;4991699;28;20018;-61
2023/09/07 11:25:49;;;;;;;7.72;4.32;;;30.00;99.90;;;;;;4988319;28;20030;-62
2023/09/07 11:28:18;;;;;;;6.20;3.97;;;30.00;99.90;;;;;;4986485;28;20026;-59
2023/09/07 11:30:51;;;;;;;5.80;3.88;;;30.10;99.90;;;;;;4983725;28;20030;-62
2023/09/07 11:33:17;;;;;;;6.20;4.00;;;30.10;99.90;;;;;;4988318;28;20039;-62
2023/09/07 11:35:43;;;;;;;5.38;3.95;;;30.20;99.90;;;;;;4983552;28;20027;-62
2023/09/07 11:38:12;;;;;;;10.50;3.97;;;30.20;99.90;;;;;;4985186;28;20077;-62
2023/09/07 11:40:37;;;;;;;5.32;3.67;;;30.20;99.90;;;;;;4986009;28;20088;-62
2023/09/07 11:43:03;;;;;;;16.52;4.05;;;30.30;99.90;;;;;;4983101;28;20492;-62
2023/09/07 11:45:28;;;;;;;8.32;3.85;;;30.50;99.90;;;;;;4985496;28;20500;-60
2023/09/07 11:47:54;;;;;;;11.75;4.00;;;30.60;99.90;;;;;;4989508;28;20030;-62
2023/09/07 11:50:23;;;;;;;10.02;3.65;;;30.60;99.90;;;;;;4985536;28;20108;-60
2023/09/07 11:52:48;;;;;;;7.53;3.85;;;30.90;99.90;;;;;;4987529;28;20049;-60
2023/09/07 11:55:14;;;;;;;6.03;3.97;;;30.90;99.90;;;;;;4991075;28;20480;-57
2023/09/07 11:57:41;;;;;;;5.75;4.10;;;30.90;99.90;;;;;;4990755;28;20057;-58
2023/09/07 12:00:09;;;;;;;5.82;4.07;;;31.10;99.90;;;;;;4989732;28;20027;-59
2023/09/07 12:02:35;;;;;;;7.18;4.10;;;31.30;99.90;;;;;;4982308;28;20034;-58
2023/09/07 12:05:03;;;;;;;7.63;4.22;;;31.40;99.90;;;;;;4985462;28;20388;-61
2023/09/07 12:07:28;;;;;;;5.18;3.95;;;30.90;99.90;;;;;;4984141;28;20026;-59
2023/09/07 12:09:57;;;;;;;10.07;4.10;;;31.10;99.90;;;;;;4986531;28;20033;-60
2023/09/07 12:12:23;;;;;;;6.03;3.95;;;31.40;99.90;;;;;;4981559;28;20046;-62
2023/09/07 12:14:48;;;;;;;9.15;4.13;;;31.50;99.90;;;;;;4988190;28;20034;-62
2023/09/07 12:17:14;;;;;;;8.02;4.30;;;31.50;99.90;;;;;;4986993;28;20033;-60
2023/09/07 12:19:41;;;;;;;10.43;4.05;;;31.70;99.90;;;;;;4990104;28;20022;-60
2023/09/07 12:22:07;;;;;;;11.25;4.30;;;32.00;99.90;;;;;;4988963;28;20022;-61
2023/09/07 12:24:33;;;;;;;13.73;4.50;;;32.00;99.90;;;;;;4987777;28;20026;-60
2023/09/07 12:26:59;;;;;;;7.40;3.50;;;32.20;99.90;;;;;;4986302;28;20374;-61
2023/09/07 12:29:25;;;;;;;11.27;4.22;;;32.10;99.90;;;;;;4986306;28;20068;-61
2023/09/07 12:31:51;;;;;;;5.93;3.75;;;32.10;99.90;;;;;;4986140;28;20484;-59
2023/09/07 12:34:17;;;;;;;5.00;4.10;;;32.00;99.90;;;;;;4988249;28;20033;-61
2023/09/07 12:36:42;;;;;;;4.35;3.25;;;32.30;99.70;;;;;;4983803;28;20023;-61